sensor_id;sensor_type;location;lat;lon;timestamp;temperature;humidity
2639;DHT22;1329;51.384;7.122;2023-03-19T00:00:49;12.10;99.90
2639;DHT22;1329;51.384;7.122;2023-03-19T00:03:20;12.10;99.90
2639;DHT22;1329;51.384;7.122;2023-03-19T00:05:51;12.20;99.90
2639;DHT22;1329;51.384;7.122;2023-03-19T00:08:18;12.20;99.90
2639;DHT22;1329;51.384;7.122;2023-03-19T00:10:45;12.20;99.90
2639;DHT22;1329;51.384;7.122;2023-03-19T00:13:12;12.20;99.90
2639;DHT22;1329;51.384;7.122;2023-03-19T00:15:41;12.20;99.90
2639;DHT22;1329;51.384;7.122;2023-03-19T00:18:08;12.20;99.90
2639;DHT22;1329;51.384;7.122;2023-03-19T00:20:35;12.20;99.90
2639;DHT22;1329;51.384;7.122;2023-03-19T00:23:02;12.20;99.90
2639;DHT22;1329;51.384;7.122;2023-03-19T00:25:29;12.20;99.90
2639;DHT22;1329;51.384;7.122;2023-03-19T00:27:56;12.20;99.90
2639;DHT22;1329;51.384;7.122;2023-03-19T00:30:23;12.20;99.90
2639;DHT22;1329;51.384;7.122;2023-03-19T00:32:52;12.20;99.90
2639;DHT22;1329;51.384;7.122;2023-03-19T00:35:20;12.20;99.90
2639;DHT22;1329;51.384;7.122;2023-03-19T00:37:47;12.20;99.90
2639;DHT22;1329;51.384;7.122;2023-03-19T00:40:14;12.20;99.90
2639;DHT22;1329;51.384;7.122;2023-03-19T00:42:41;12.20;99.90
2639;DHT22;1329;51.384;7.122;2023-03-19T00:45:10;12.20;99.90
2639;DHT22;1329;51.384;7.122;2023-03-19T00:47:38;12.20;99.90
2639;DHT22;1329;51.384;7.122;2023-03-19T00:50:09;12.20;99.90
2639;DHT22;1329;51.384;7.122;2023-03-19T00:52:37;12.20;99.90
2639;DHT22;1329;51.384;7.122;2023-03-19T00:55:06;12.20;99.90
2639;DHT22;1329;51.384;7.122;2023-03-19T00:57:34;12.10;99.90
2639;DHT22;1329;51.384;7.122;2023-03-19T01:00:02;12.10;99.90
2639;DHT22;1329;51.384;7.122;2023-03-19T01:02:31;12.10;99.90
2639;DHT22;1329;51.384;7.122;2023-03-19T01:04:58;12.00;99.90
2639;DHT22;1329;51.384;7.122;2023-03-19T01:07:26;12.00;99.90
2639;DHT22;1329;51.384;7.122;2023-03-19T01:09:53;11.90;99.90
2639;DHT22;1329;51.384;7.122;2023-03-19T01:12:20;11.90;99.90
2639;DHT22;1329;51.384;7.122;2023-03-19T01:14:47;11.80;99.90
2639;DHT22;1329;51.384;7.122;2023-03-19T01:17:15;11.80;99.90
2639;DHT22;1329;51.384;7.122;2023-03-19T01:19:41;11.70;99.90
2639;DHT22;1329;51.384;7.122;2023-03-19T01:22:09;11.70;99.90
2639;DHT22;1329;51.384;7.122;2023-03-19T01:24:38;11.60;99.90
2639;DHT22;1329;51.384;7.122;2023-03-19T01:27:06;11.60;99.90
2639;DHT22;1329;51.384;7.122;2023-03-19T01:29:33;11.60;99.90
2639;DHT22;1329;51.384;7.122;2023-03-19T01:32:01;11.50;99.90
2639;DHT22;1329;51.384;7.122;2023-03-19T01:34:28;11.50;99.90
2639;DHT22;1329;51.384;7.122;2023-03-19T01:36:56;11.50;99.90
2639;DHT22;1329;51.384;7.122;2023-03-19T01:39:23;11.50;99.90
2639;DHT22;1329;51.384;7.122;2023-03-19T01:41:52;11.50;99.90
2639;DHT22;1329;51.384;7.122;2023-03-19T01:44:27;11.50;99.90
2639;DHT22;1329;51.384;7.122;2023-03-19T01:46:58;11.40;99.90
2639;DHT22;1329;51.384;7.122;2023-03-19T01:49:28;11.40;99.90
2639;DHT22;1329;51.384;7.122;2023-03-19T01:51:57;11.40;99.90
2639;DHT22;1329;51.384;7.122;2023-03-19T01:54:27;11.30;99.90
2639;DHT22;1329;51.384;7.122;2023-03-19T01:57:01;11.40;99.90
2639;DHT22;1329;51.384;7.122;2023-03-19T01:59:33;11.30;99.90
2639;DHT22;1329;51.384;7.122;2023-03-19T02:02:07;11.30;99.90
2639;DHT22;1329;51.384;7.122;2023-03-19T02:04:37;11.30;99.90
2639;DHT22;1329;51.384;7.122;2023-03-19T02:07:07;11.30;99.90
2639;DHT22;1329;51.384;7.122;2023-03-19T02:09:36;11.30;99.90
2639;DHT22;1329;51.384;7.122;2023-03-19T02:12:08;11.20;99.90
2639;DHT22;1329;51.384;7.122;2023-03-19T02:14:36;11.20;99.90
2639;DHT22;1329;51.384;7.122;2023-03-19T02:17:10;11.20;99.90
2639;DHT22;1329;51.384;7.122;2023-03-19T02:19:45;11.10;99.90
2639;DHT22;1329;51.384;7.122;2023-03-19T02:22:18;11.10;99.90
2639;DHT22;1329;51.384;7.122;2023-03-19T02:24:58;11.10;99.90
2639;DHT22;1329;51.384;7.122;2023-03-19T02:27:32;11.00;99.90
2639;DHT22;1329;51.384;7.122;2023-03-19T02:30:00;11.10;99.90
2639;DHT22;1329;51.384;7.122;2023-03-19T02:32:44;11.00;99.90
2639;DHT22;1329;51.384;7.122;2023-03-19T02:35:13;11.00;99.90
2639;DHT22;1329;51.384;7.122;2023-03-19T02:37:41;10.90;99.90
2639;DHT22;1329;51.384;7.122;2023-03-19T02:40:13;10.90;99.90
2639;DHT22;1329;51.384;7.122;2023-03-19T02:42:45;10.90;99.90
2639;DHT22;1329;51.384;7.122;2023-03-19T02:45:14;10.90;99.90
2639;DHT22;1329;51.384;7.122;2023-03-19T02:47:41;10.90;99.90
2639;DHT22;1329;51.384;7.122;2023-03-19T02:50:09;10.90;99.90
2639;DHT22;1329;51.384;7.122;2023-03-19T02:52:38;10.90;99.90
2639;DHT22;1329;51.384;7.122;2023-03-19T02:55:07;10.90;99.90
2639;DHT22;1329;51.384;7.122;2023-03-19T02:57:38;10.90;99.90
2639;DHT22;1329;51.384;7.122;2023-03-19T03:00:09;11.00;99.90
2639;DHT22;1329;51.384;7.122;2023-03-19T03:02:38;11.00;99.90
2639;DHT22;1329;51.384;7.122;2023-03-19T03:05:08;11.00;99.90
2639;DHT22;1329;51.384;7.122;2023-03-19T03:07:38;11.00;99.90
2639;DHT22;1329;51.384;7.122;2023-03-19T03:10:06;11.10;99.90
2639;DHT22;1329;51.384;7.122;2023-03-19T03:12:35;11.10;99.90
2639;DHT22;1329;51.384;7.122;2023-03-19T03:15:04;11.10;99.90
2639;DHT22;1329;51.384;7.122;2023-03-19T03:17:36;11.20;99.90
2639;DHT22;1329;51.384;7.122;2023-03-19T03:20:06;11.20;99.90
2639;DHT22;1329;51.384;7.122;2023-03-19T03:22:38;11.20;99.90
2639;DHT22;1329;51.384;7.122;2023-03-19T03:25:09;11.30;99.90
2639;DHT22;1329;51.384;7.122;2023-03-19T03:27:40;11.30;99.90
2639;DHT22;1329;51.384;7.122;2023-03-19T03:30:09;11.30;99.90
2639;DHT22;1329;51.384;7.122;2023-03-19T03:32:39;11.40;99.90
2639;DHT22;1329;51.384;7.122;2023-03-19T03:35:10;11.40;99.90
2639;DHT22;1329;51.384;7.122;2023-03-19T03:37:38;11.40;99.90
2639;DHT22;1329;51.384;7.122;2023-03-19T03:40:08;11.40;99.90
2639;DHT22;1329;51.384;7.122;2023-03-19T03:42:36;11.40;99.90
2639;DHT22;1329;51.384;7.122;2023-03-19T03:45:04;11.50;99.90
2639;DHT22;1329;51.384;7.122;2023-03-19T03:47:40;11.50;99.90
2639;DHT22;1329;51.384;7.122;2023-03-19T03:50:08;11.50;99.90
2639;DHT22;1329;51.384;7.122;2023-03-19T03:52:37;11.50;99.90
2639;DHT22;1329;51.384;7.122;2023-03-19T03:55:07;11.50;99.90
2639;DHT22;1329;51.384;7.122;2023-03-19T03:57:35;11.50;99.90
2639;DHT22;1329;51.384;7.122;2023-03-19T04:00:04;11.60;99.90
2639;DHT22;1329;51.384;7.122;2023-03-19T04:02:32;11.60;99.90
2639;DHT22;1329;51.384;7.122;2023-03-19T04:05:02;11.60;99.90
2639;DHT22;1329;51.384;7.122;2023-03-19T04:07:31;11.60;99.90
2639;DHT22;1329;51.384;7.122;2023-03-19T04:10:01;11.60;99.90
2639;DHT22;1329;51.384;7.122;2023-03-19T04:12:33;11.60;99.90
2639;DHT22;1329;51.384;7.122;2023-03-19T04:15:03;11.70;99.90
2639;DHT22;1329;51.384;7.122;2023-03-19T04:17:39;11.70;99.90
2639;DHT22;1329;51.384;7.122;2023-03-19T04:20:15;11.70;99.90
2639;DHT22;1329;51.384;7.122;2023-03-19T04:22:45;11.70;99.90
2639;DHT22;1329;51.384;7.122;2023-03-19T04:25:17;11.70;99.90
2639;DHT22;1329;51.384;7.122;2023-03-19T04:27:50;11.70;99.90
2639;DHT22;1329;51.384;7.122;2023-03-19T04:30:20;11.70;99.90
2639;DHT22;1329;51.384;7.122;2023-03-19T04:32:50;11.70;99.90
2639;DHT22;1329;51.384;7.122;2023-03-19T04:35:25;11.70;99.90
2639;DHT22;1329;51.384;7.122;2023-03-19T04:37:57;11.70;99.90
2639;DHT22;1329;51.384;7.122;2023-03-19T04:40:27;11.70;99.90
2639;DHT22;1329;51.384;7.122;2023-03-19T04:42:55;11.70;99.90
2639;DHT22;1329;51.384;7.122;2023-03-19T04:45:25;11.70;99.90
2639;DHT22;1329;51.384;7.122;2023-03-19T04:47:57;11.80;99.90
2639;DHT22;1329;51.384;7.122;2023-03-19T04:50:35;11.80;99.90
2639;DHT22;1329;51.384;7.122;2023-03-19T04:53:13;11.90;99.90
2639;DHT22;1329;51.384;7.122;2023-03-19T04:55:42;11.90;99.90
2639;DHT22;1329;51.384;7.122;2023-03-19T04:58:17;11.90;99.90
2639;DHT22;1329;51.384;7.122;2023-03-19T05:00:48;12.00;99.90
2639;DHT22;1329;51.384;7.122;2023-03-19T05:03:26;12.00;99.90
2639;DHT22;1329;51.384;7.122;2023-03-19T05:06:02;12.10;99.90
2639;DHT22;1329;51.384;7.122;2023-03-19T05:08:32;12.20;99.90
2639;DHT22;1329;51.384;7.122;2023-03-19T05:11:05;12.20;99.90
2639;DHT22;1329;51.384;7.122;2023-03-19T05:13:41;12.30;99.90
2639;DHT22;1329;51.384;7.122;2023-03-19T05:16:19;12.30;99.90
2639;DHT22;1329;51.384;7.122;2023-03-19T05:18:56;12.40;99.90
2639;DHT22;1329;51.384;7.122;2023-03-19T05:21:26;12.40;99.90
2639;DHT22;1329;51.384;7.122;2023-03-19T05:23:56;12.50;99.90
2639;DHT22;1329;51.384;7.122;2023-03-19T05:26:26;12.50;99.90
2639;DHT22;1329;51.384;7.122;2023-03-19T05:29:08;12.50;99.90
2639;DHT22;1329;51.384;7.122;2023-03-19T05:31:40;12.60;99.90
2639;DHT22;1329;51.384;7.122;2023-03-19T05:34:21;12.60;99.90
2639;DHT22;1329;51.384;7.122;2023-03-19T05:36:56;12.60;99.90
2639;DHT22;1329;51.384;7.122;2023-03-19T05:39:28;12.60;99.90
2639;DHT22;1329;51.384;7.122;2023-03-19T05:41:58;12.60;99.90
2639;DHT22;1329;51.384;7.122;2023-03-19T05:44:28;12.60;99.90
2639;DHT22;1329;51.384;7.122;2023-03-19T05:46:58;12.60;99.90
2639;DHT22;1329;51.384;7.122;2023-03-19T05:49:30;12.60;99.90
2639;DHT22;1329;51.384;7.122;2023-03-19T05:52:17;12.60;99.90
2639;DHT22;1329;51.384;7.122;2023-03-19T05:54:52;12.60;99.90
2639;DHT22;1329;51.384;7.122;2023-03-19T05:57:25;12.60;99.90
2639;DHT22;1329;51.384;7.122;2023-03-19T05:59:57;12.60;99.90
2639;DHT22;1329;51.384;7.122;2023-03-19T06:02:28;12.60;99.90
2639;DHT22;1329;51.384;7.122;2023-03-19T06:05:03;12.60;99.90
2639;DHT22;1329;51.384;7.122;2023-03-19T06:07:37;12.60;99.90
2639;DHT22;1329;51.384;7.122;2023-03-19T06:10:07;12.60;99.90
2639;DHT22;1329;51.384;7.122;2023-03-19T06:12:37;12.60;99.90
2639;DHT22;1329;51.384;7.122;2023-03-19T06:15:08;12.60;99.90
2639;DHT22;1329;51.384;7.122;2023-03-19T06:17:40;12.60;99.90
2639;DHT22;1329;51.384;7.122;2023-03-19T06:20:16;12.60;99.90
2639;DHT22;1329;51.384;7.122;2023-03-19T06:22:46;12.60;99.90
2639;DHT22;1329;51.384;7.122;2023-03-19T06:25:15;12.60;99.90
2639;DHT22;1329;51.384;7.122;2023-03-19T06:27:44;12.60;99.90
2639;DHT22;1329;51.384;7.122;2023-03-19T06:30:19;12.60;99.90
2639;DHT22;1329;51.384;7.122;2023-03-19T06:32:53;12.60;99.90
2639;DHT22;1329;51.384;7.122;2023-03-19T06:35:22;12.60;99.90
2639;DHT22;1329;51.384;7.122;2023-03-19T06:37:58;12.60;99.90
2639;DHT22;1329;51.384;7.122;2023-03-19T06:40:25;12.70;99.90
2639;DHT22;1329;51.384;7.122;2023-03-19T06:42:53;12.60;99.90
2639;DHT22;1329;51.384;7.122;2023-03-19T06:45:26;12.60;99.90
2639;DHT22;1329;51.384;7.122;2023-03-19T06:47:56;12.70;99.90
2639;DHT22;1329;51.384;7.122;2023-03-19T06:50:31;12.70;99.90
2639;DHT22;1329;51.384;7.122;2023-03-19T06:53:04;12.70;99.90
2639;DHT22;1329;51.384;7.122;2023-03-19T06:55:32;12.70;99.90
2639;DHT22;1329;51.384;7.122;2023-03-19T06:58:03;12.70;99.90
2639;DHT22;1329;51.384;7.122;2023-03-19T07:00:32;12.70;99.90
2639;DHT22;1329;51.384;7.122;2023-03-19T07:03:01;12.80;99.90
2639;DHT22;1329;51.384;7.122;2023-03-19T07:05:30;12.80;99.90
2639;DHT22;1329;51.384;7.122;2023-03-19T07:07:59;12.80;99.90
2639;DHT22;1329;51.384;7.122;2023-03-19T07:10:28;12.80;99.90
2639;DHT22;1329;51.384;7.122;2023-03-19T07:13:02;12.90;99.90
2639;DHT22;1329;51.384;7.122;2023-03-19T07:15:38;12.90;99.90
2639;DHT22;1329;51.384;7.122;2023-03-19T07:18:12;12.90;99.90
2639;DHT22;1329;51.384;7.122;2023-03-19T07:20:43;13.00;99.90
2639;DHT22;1329;51.384;7.122;2023-03-19T07:23:13;13.00;99.90
2639;DHT22;1329;51.384;7.122;2023-03-19T07:25:50;13.00;99.90
2639;DHT22;1329;51.384;7.122;2023-03-19T07:28:20;13.10;99.90
2639;DHT22;1329;51.384;7.122;2023-03-19T07:30:51;13.00;99.90
2639;DHT22;1329;51.384;7.122;2023-03-19T07:33:32;13.00;99.90
2639;DHT22;1329;51.384;7.122;2023-03-19T07:36:08;13.00;99.90
2639;DHT22;1329;51.384;7.122;2023-03-19T07:38:48;13.00;99.90
2639;DHT22;1329;51.384;7.122;2023-03-19T07:41:35;13.00;99.90
2639;DHT22;1329;51.384;7.122;2023-03-19T07:44:04;12.90;99.90
2639;DHT22;1329;51.384;7.122;2023-03-19T07:46:43;12.90;99.90
2639;DHT22;1329;51.384;7.122;2023-03-19T07:49:13;12.90;99.90
2639;DHT22;1329;51.384;7.122;2023-03-19T07:51:43;12.90;99.90
2639;DHT22;1329;51.384;7.122;2023-03-19T07:54:15;12.90;99.90
2639;DHT22;1329;51.384;7.122;2023-03-19T07:56:46;12.90;99.90
2639;DHT22;1329;51.384;7.122;2023-03-19T07:59:14;12.90;99.90
2639;DHT22;1329;51.384;7.122;2023-03-19T08:01:45;12.90;99.90
2639;DHT22;1329;51.384;7.122;2023-03-19T08:04:16;12.90;99.90
2639;DHT22;1329;51.384;7.122;2023-03-19T08:06:50;12.90;99.90
2639;DHT22;1329;51.384;7.122;2023-03-19T08:09:19;12.90;99.90
2639;DHT22;1329;51.384;7.122;2023-03-19T08:12:13;12.90;99.90
2639;DHT22;1329;51.384;7.122;2023-03-19T08:14:41;13.00;99.90
2639;DHT22;1329;51.384;7.122;2023-03-19T08:17:18;13.00;99.90
2639;DHT22;1329;51.384;7.122;2023-03-19T08:19:55;13.00;99.90
2639;DHT22;1329;51.384;7.122;2023-03-19T08:22:24;13.00;99.90
2639;DHT22;1329;51.384;7.122;2023-03-19T08:25:04;13.00;99.90
2639;DHT22;1329;51.384;7.122;2023-03-19T08:27:47;13.00;99.90
2639;DHT22;1329;51.384;7.122;2023-03-19T08:30:18;13.00;99.90
2639;DHT22;1329;51.384;7.122;2023-03-19T08:33:11;13.00;99.90
2639;DHT22;1329;51.384;7.122;2023-03-19T08:35:39;13.00;99.90
2639;DHT22;1329;51.384;7.122;2023-03-19T08:38:10;13.00;99.90
2639;DHT22;1329;51.384;7.122;2023-03-19T08:40:42;12.90;99.90
2639;DHT22;1329;51.384;7.122;2023-03-19T08:43:27;13.00;99.90
2639;DHT22;1329;51.384;7.122;2023-03-19T08:45:55;12.90;99.90
2639;DHT22;1329;51.384;7.122;2023-03-19T08:48:25;12.90;99.90
2639;DHT22;1329;51.384;7.122;2023-03-19T08:51:00;13.00;99.90
2639;DHT22;1329;51.384;7.122;2023-03-19T08:53:37;13.00;99.90
2639;DHT22;1329;51.384;7.122;2023-03-19T08:56:08;13.00;99.90
2639;DHT22;1329;51.384;7.122;2023-03-19T08:58:39;13.00;99.90
2639;DHT22;1329;51.384;7.122;2023-03-19T09:01:15;13.10;99.90
2639;DHT22;1329;51.384;7.122;2023-03-19T09:03:43;13.10;99.90
2639;DHT22;1329;51.384;7.122;2023-03-19T09:06:12;13.20;99.90
2639;DHT22;1329;51.384;7.122;2023-03-19T09:08:41;13.20;99.90
2639;DHT22;1329;51.384;7.122;2023-03-19T09:11:10;13.20;99.90
2639;DHT22;1329;51.384;7.122;2023-03-19T09:13:40;13.20;99.90
2639;DHT22;1329;51.384;7.122;2023-03-19T09:16:08;13.30;99.90
2639;DHT22;1329;51.384;7.122;2023-03-19T09:18:48;13.40;99.90
2639;DHT22;1329;51.384;7.122;2023-03-19T09:21:16;13.40;99.90
2639;DHT22;1329;51.384;7.122;2023-03-19T09:23:43;13.40;99.90
2639;DHT22;1329;51.384;7.122;2023-03-19T09:26:10;13.50;99.90
2639;DHT22;1329;51.384;7.122;2023-03-19T09:28:39;13.50;99.90
2639;DHT22;1329;51.384;7.122;2023-03-19T09:31:10;13.60;99.90
2639;DHT22;1329;51.384;7.122;2023-03-19T09:33:39;13.70;99.90
2639;DHT22;1329;51.384;7.122;2023-03-19T09:36:08;13.70;99.90
2639;DHT22;1329;51.384;7.122;2023-03-19T09:38:36;13.80;99.90
2639;DHT22;1329;51.384;7.122;2023-03-19T09:41:09;14.00;99.90
2639;DHT22;1329;51.384;7.122;2023-03-19T09:44:01;14.10;99.90
2639;DHT22;1329;51.384;7.122;2023-03-19T09:46:38;14.20;99.90
2639;DHT22;1329;51.384;7.122;2023-03-19T09:49:16;14.30;99.90
2639;DHT22;1329;51.384;7.122;2023-03-19T09:51:54;14.40;99.90
2639;DHT22;1329;51.384;7.122;2023-03-19T09:54:32;14.50;99.90
2639;DHT22;1329;51.384;7.122;2023-03-19T09:57:02;14.60;99.90
2639;DHT22;1329;51.384;7.122;2023-03-19T09:59:36;14.70;99.90
2639;DHT22;1329;51.384;7.122;2023-03-19T10:02:28;14.80;99.90
2639;DHT22;1329;51.384;7.122;2023-03-19T10:05:14;14.90;99.90
2639;DHT22;1329;51.384;7.122;2023-03-19T10:08:10;15.00;99.90
2639;DHT22;1329;51.384;7.122;2023-03-19T10:11:25;15.10;99.90
2639;DHT22;1329;51.384;7.122;2023-03-19T10:14:28;15.20;99.90
2639;DHT22;1329;51.384;7.122;2023-03-19T10:17:13;15.30;99.90
2639;DHT22;1329;51.384;7.122;2023-03-19T10:19:48;15.30;99.90
2639;DHT22;1329;51.384;7.122;2023-03-19T10:22:24;15.30;99.90
2639;DHT22;1329;51.384;7.122;2023-03-19T10:24:56;15.30;99.90
2639;DHT22;1329;51.384;7.122;2023-03-19T10:27:28;15.30;99.90
2639;DHT22;1329;51.384;7.122;2023-03-19T10:30:00;15.30;99.90
2639;DHT22;1329;51.384;7.122;2023-03-19T10:32:39;15.30;99.90
2639;DHT22;1329;51.384;7.122;2023-03-19T10:35:17;15.30;99.90
2639;DHT22;1329;51.384;7.122;2023-03-19T10:37:47;15.30;99.90
2639;DHT22;1329;51.384;7.122;2023-03-19T10:40:21;15.30;99.90
2639;DHT22;1329;51.384;7.122;2023-03-19T10:43:13;15.30;99.90
2639;DHT22;1329;51.384;7.122;2023-03-19T10:45:45;15.40;99.90
2639;DHT22;1329;51.384;7.122;2023-03-19T10:48:16;15.40;99.90
2639;DHT22;1329;51.384;7.122;2023-03-19T10:50:48;15.50;99.90
2639;DHT22;1329;51.384;7.122;2023-03-19T10:53:29;15.60;99.90
2639;DHT22;1329;51.384;7.122;2023-03-19T10:56:14;15.70;99.90
2639;DHT22;1329;51.384;7.122;2023-03-19T10:58:56;15.70;99.90
2639;DHT22;1329;51.384;7.122;2023-03-19T11:01:33;15.80;99.90
2639;DHT22;1329;51.384;7.122;2023-03-19T11:04:13;15.80;99.90
2639;DHT22;1329;51.384;7.122;2023-03-19T11:06:47;15.90;99.90
2639;DHT22;1329;51.384;7.122;2023-03-19T11:09:24;16.00;99.90
2639;DHT22;1329;51.384;7.122;2023-03-19T11:11:58;16.10;99.90
2639;DHT22;1329;51.384;7.122;2023-03-19T11:14:35;16.10;99.90
2639;DHT22;1329;51.384;7.122;2023-03-19T11:17:15;16.20;99.90
2639;DHT22;1329;51.384;7.122;2023-03-19T11:19:54;16.20;99.90
2639;DHT22;1329;51.384;7.122;2023-03-19T11:22:27;16.30;99.90
2639;DHT22;1329;51.384;7.122;2023-03-19T11:25:06;16.30;99.90
2639;DHT22;1329;51.384;7.122;2023-03-19T11:27:44;16.30;99.90
2639;DHT22;1329;51.384;7.122;2023-03-19T11:30:31;16.30;99.90
2639;DHT22;1329;51.384;7.122;2023-03-19T11:36:11;16.40;99.90
2639;DHT22;1329;51.384;7.122;2023-03-19T11:38:54;16.40;99.90
2639;DHT22;1329;51.384;7.122;2023-03-19T11:41:37;16.40;99.90
2639;DHT22;1329;51.384;7.122;2023-03-19T11:44:15;16.20;99.90
2639;DHT22;1329;51.384;7.122;2023-03-19T11:46:52;16.10;99.90
2639;DHT22;1329;51.384;7.122;2023-03-19T11:49:54;15.90;99.90
2639;DHT22;1329;51.384;7.122;2023-03-19T11:52:33;15.80;99.90
2639;DHT22;1329;51.384;7.122;2023-03-19T11:55:24;15.60;99.90
2639;DHT22;1329;51.384;7.122;2023-03-19T11:58:18;15.50;99.90
2639;DHT22;1329;51.384;7.122;2023-03-19T12:01:18;15.40;99.90
2639;DHT22;1329;51.384;7.122;2023-03-19T12:07:08;15.20;99.90
2639;DHT22;1329;51.384;7.122;2023-03-19T12:09:51;15.20;99.90
2639;DHT22;1329;51.384;7.122;2023-03-19T12:12:32;15.10;99.90
2639;DHT22;1329;51.384;7.122;2023-03-19T12:15:12;15.00;99.90
2639;DHT22;1329;51.384;7.122;2023-03-19T12:18:03;14.90;99.90
2639;DHT22;1329;51.384;7.122;2023-03-19T12:20:54;14.80;99.90
2639;DHT22;1329;51.384;7.122;2023-03-19T12:23:37;14.70;99.90
2639;DHT22;1329;51.384;7.122;2023-03-19T12:26:16;14.80;99.90
2639;DHT22;1329;51.384;7.122;2023-03-19T12:28:53;14.90;99.90
2639;DHT22;1329;51.384;7.122;2023-03-19T12:31:58;14.90;99.90
2639;DHT22;1329;51.384;7.122;2023-03-19T12:34:39;15.00;99.90
2639;DHT22;1329;51.384;7.122;2023-03-19T12:37:21;15.00;99.90
2639;DHT22;1329;51.384;7.122;2023-03-19T12:40:31;15.00;99.90
2639;DHT22;1329;51.384;7.122;2023-03-19T12:43:17;15.10;99.90
2639;DHT22;1329;51.384;7.122;2023-03-19T12:45:54;15.10;99.90
2639;DHT22;1329;51.384;7.122;2023-03-19T12:48:27;15.10;99.90
2639;DHT22;1329;51.384;7.122;2023-03-19T12:51:06;15.10;99.90
2639;DHT22;1329;51.384;7.122;2023-03-19T12:53:45;15.10;99.90
2639;DHT22;1329;51.384;7.122;2023-03-19T12:56:31;15.10;99.90
2639;DHT22;1329;51.384;7.122;2023-03-19T12:59:26;15.10;99.90
2639;DHT22;1329;51.384;7.122;2023-03-19T13:02:02;15.10;99.90
2639;DHT22;1329;51.384;7.122;2023-03-19T13:04:38;15.10;99.90
2639;DHT22;1329;51.384;7.122;2023-03-19T13:07:19;15.10;99.90
2639;DHT22;1329;51.384;7.122;2023-03-19T13:09:58;15.20;99.90
2639;DHT22;1329;51.384;7.122;2023-03-19T13:12:35;15.20;99.90
2639;DHT22;1329;51.384;7.122;2023-03-19T13:15:08;15.20;99.90
2639;DHT22;1329;51.384;7.122;2023-03-19T13:17:45;15.10;99.90
2639;DHT22;1329;51.384;7.122;2023-03-19T13:20:25;15.10;99.90
2639;DHT22;1329;51.384;7.122;2023-03-19T13:23:02;15.00;99.90
2639;DHT22;1329;51.384;7.122;2023-03-19T13:25:42;15.00;99.90
2639;DHT22;1329;51.384;7.122;2023-03-19T13:28:33;15.00;99.90
2639;DHT22;1329;51.384;7.122;2023-03-19T13:31:07;15.00;99.90
2639;DHT22;1329;51.384;7.122;2023-03-19T13:34:00;14.90;99.90
2639;DHT22;1329;51.384;7.122;2023-03-19T13:36:41;15.00;99.90
2639;DHT22;1329;51.384;7.122;2023-03-19T13:39:15;15.00;99.90
2639;DHT22;1329;51.384;7.122;2023-03-19T13:41:57;15.00;99.90
2639;DHT22;1329;51.384;7.122;2023-03-19T13:44:53;15.10;99.90
2639;DHT22;1329;51.384;7.122;2023-03-19T13:47:50;15.20;99.90
2639;DHT22;1329;51.384;7.122;2023-03-19T13:50:30;15.20;99.90
2639;DHT22;1329;51.384;7.122;2023-03-19T13:53:39;15.30;99.90
2639;DHT22;1329;51.384;7.122;2023-03-19T13:56:09;15.40;99.90
2639;DHT22;1329;51.384;7.122;2023-03-19T13:58:48;15.40;99.90
2639;DHT22;1329;51.384;7.122;2023-03-19T14:01:55;15.40;99.90
2639;DHT22;1329;51.384;7.122;2023-03-19T14:04:32;15.50;99.90
2639;DHT22;1329;51.384;7.122;2023-03-19T14:07:10;15.60;99.90
2639;DHT22;1329;51.384;7.122;2023-03-19T14:09:42;15.60;99.90
2639;DHT22;1329;51.384;7.122;2023-03-19T14:12:30;15.70;99.90
2639;DHT22;1329;51.384;7.122;2023-03-19T14:15:02;15.70;99.90
2639;DHT22;1329;51.384;7.122;2023-03-19T14:17:33;15.70;99.90
2639;DHT22;1329;51.384;7.122;2023-03-19T14:20:23;15.80;99.90
2639;DHT22;1329;51.384;7.122;2023-03-19T14:23:02;15.80;99.90
2639;DHT22;1329;51.384;7.122;2023-03-19T14:26:04;15.80;99.90
2639;DHT22;1329;51.384;7.122;2023-03-19T14:28:51;15.80;99.90
2639;DHT22;1329;51.384;7.122;2023-03-19T14:34:23;15.70;99.90
2639;DHT22;1329;51.384;7.122;2023-03-19T14:37:00;15.70;99.90
2639;DHT22;1329;51.384;7.122;2023-03-19T14:39:31;15.70;99.90
2639;DHT22;1329;51.384;7.122;2023-03-19T14:42:04;15.70;99.90
2639;DHT22;1329;51.384;7.122;2023-03-19T14:45:11;15.70;99.90
2639;DHT22;1329;51.384;7.122;2023-03-19T14:48:07;15.70;99.90
2639;DHT22;1329;51.384;7.122;2023-03-19T14:54:24;15.60;99.90
2639;DHT22;1329;51.384;7.122;2023-03-19T14:56:57;15.50;99.90
2639;DHT22;1329;51.384;7.122;2023-03-19T14:59:36;15.60;99.90
2639;DHT22;1329;51.384;7.122;2023-03-19T15:02:30;15.50;99.90
2639;DHT22;1329;51.384;7.122;2023-03-19T15:05:02;15.50;99.90
2639;DHT22;1329;51.384;7.122;2023-03-19T15:07:36;15.50;99.90
2639;DHT22;1329;51.384;7.122;2023-03-19T15:10:12;15.50;99.90
2639;DHT22;1329;51.384;7.122;2023-03-19T15:16:15;15.60;99.90
2639;DHT22;1329;51.384;7.122;2023-03-19T15:19:02;15.60;99.90
2639;DHT22;1329;51.384;7.122;2023-03-19T15:21:37;15.60;99.90
2639;DHT22;1329;51.384;7.122;2023-03-19T15:24:15;15.60;99.90
2639;DHT22;1329;51.384;7.122;2023-03-19T15:26:47;15.60;99.90
2639;DHT22;1329;51.384;7.122;2023-03-19T15:29:30;15.60;99.90
2639;DHT22;1329;51.384;7.122;2023-03-19T15:31:59;15.60;99.90
2639;DHT22;1329;51.384;7.122;2023-03-19T15:34:28;15.60;99.90
2639;DHT22;1329;51.384;7.122;2023-03-19T15:37:02;15.50;99.90
2639;DHT22;1329;51.384;7.122;2023-03-19T15:39:34;15.50;99.90
2639;DHT22;1329;51.384;7.122;2023-03-19T15:42:03;15.50;99.90
2639;DHT22;1329;51.384;7.122;2023-03-19T15:44:37;15.50;99.90
2639;DHT22;1329;51.384;7.122;2023-03-19T15:47:15;15.50;99.90
2639;DHT22;1329;51.384;7.122;2023-03-19T15:49:48;15.50;99.90
2639;DHT22;1329;51.384;7.122;2023-03-19T15:52:49;15.50;99.90
2639;DHT22;1329;51.384;7.122;2023-03-19T15:55:23;15.60;99.90
2639;DHT22;1329;51.384;7.122;2023-03-19T15:58:09;15.60;99.90
2639;DHT22;1329;51.384;7.122;2023-03-19T16:00:38;15.60;99.90
2639;DHT22;1329;51.384;7.122;2023-03-19T16:03:09;15.60;99.90
2639;DHT22;1329;51.384;7.122;2023-03-19T16:05:39;15.60;99.90
2639;DHT22;1329;51.384;7.122;2023-03-19T16:08:14;15.60;99.90
2639;DHT22;1329;51.384;7.122;2023-03-19T16:10:46;15.60;99.90
2639;DHT22;1329;51.384;7.122;2023-03-19T16:13:28;15.60;99.90
2639;DHT22;1329;51.384;7.122;2023-03-19T16:16:01;15.60;99.90
2639;DHT22;1329;51.384;7.122;2023-03-19T16:18:42;15.50;99.90
2639;DHT22;1329;51.384;7.122;2023-03-19T16:21:17;15.50;99.90
2639;DHT22;1329;51.384;7.122;2023-03-19T16:23:51;15.50;99.90
2639;DHT22;1329;51.384;7.122;2023-03-19T16:26:24;15.40;99.90
2639;DHT22;1329;51.384;7.122;2023-03-19T16:28:58;15.40;99.90
2639;DHT22;1329;51.384;7.122;2023-03-19T16:31:30;15.40;99.90
2639;DHT22;1329;51.384;7.122;2023-03-19T16:34:00;15.30;99.90
2639;DHT22;1329;51.384;7.122;2023-03-19T16:36:30;15.30;99.90
2639;DHT22;1329;51.384;7.122;2023-03-19T16:39:13;15.30;99.90
2639;DHT22;1329;51.384;7.122;2023-03-19T16:42:38;15.20;99.90
2639;DHT22;1329;51.384;7.122;2023-03-19T16:45:21;15.20;99.90
2639;DHT22;1329;51.384;7.122;2023-03-19T16:47:52;15.20;99.90
2639;DHT22;1329;51.384;7.122;2023-03-19T16:50:28;15.10;99.90
2639;DHT22;1329;51.384;7.122;2023-03-19T16:52:57;15.10;99.90
2639;DHT22;1329;51.384;7.122;2023-03-19T16:55:30;15.10;99.90
2639;DHT22;1329;51.384;7.122;2023-03-19T16:58:01;15.10;99.90
2639;DHT22;1329;51.384;7.122;2023-03-19T17:00:31;15.10;99.90
2639;DHT22;1329;51.384;7.122;2023-03-19T17:03:00;15.10;99.90
2639;DHT22;1329;51.384;7.122;2023-03-19T17:05:28;15.00;99.90
2639;DHT22;1329;51.384;7.122;2023-03-19T17:08:01;15.00;99.90